Time;durP1;ratioP1;P1;durP2;ratioP2;P2;SDS_P1;SDS_P2;PMS_P1;PMS_P2;Temp;Humidity;BMP_temperature;BMP_pressure;BME280_temperature;BME280_humidity;BME280_pressure;Samples;Min_cycle;Max_cycle;Signal;HPM_P1;HPM_P2
2023/07/03 00:02:00;;;;;;;;;;;18.40;62.20;;;;;;5071655;28;19909;-28
2023/07/03 00:04:26;;;;;;;;;;;18.40;62.30;;;;;;5071806;28;19966;-28
2023/07/03 00:06:52;;;;;;;;;;;18.30;62.50;;;;;;5071651;28;19915;-29
2023/07/03 00:09:18;;;;;;;;;;;18.30;62.50;;;;;;5071646;28;19913;-29
2023/07/03 00:11:43;;;;;;;;;;;18.30;62.50;;;;;;5071802;28;19935;-30
2023/07/03 00:14:09;;;;;;;;;;;18.30;62.40;;;;;;5072106;28;20380;-28
2023/07/03 00:16:34;;;;;;;;;;;18.30;62.40;;;;;;5071660;28;19954;-27
2023/07/03 00:19:00;;;;;;;;;;;18.30;62.30;;;;;;5071510;28;19913;-26
2023/07/03 00:21:25;;;;;;;;;;;18.30;62.50;;;;;;5071565;28;20256;-31
2023/07/03 00:23:51;;;;;;;;;;;18.20;62.50;;;;;;5071613;28;19908;-28
2023/07/03 00:26:17;;;;;;;;;;;18.20;62.50;;;;;;5071513;28;19908;-26
2023/07/03 00:28:42;;;;;;;;;;;18.20;62.70;;;;;;5071230;28;20279;-29
2023/07/03 00:31:07;;;;;;;;;;;18.20;62.70;;;;;;5071520;28;19912;-29
2023/07/03 00:33:33;;;;;;;;;;;18.20;62.60;;;;;;5071493;28;19908;-28
2023/07/03 00:35:58;;;;;;;;;;;18.20;62.60;;;;;;5071351;28;20026;-27
2023/07/03 00:38:24;;;;;;;;;;;18.20;62.60;;;;;;5071283;28;19919;-26
2023/07/03 00:40:50;;;;;;;;;;;18.10;62.50;;;;;;5071596;28;20008;-28
2023/07/03 00:43:15;;;;;;;;;;;18.10;62.50;;;;;;5071564;28;20272;-27
2023/07/03 00:45:41;;;;;;;;;;;18.10;62.60;;;;;;5071726;28;19908;-31
2023/07/03 00:48:07;;;;;;;;;;;18.10;62.70;;;;;;5071312;28;20344;-40
2023/07/03 00:50:34;;;;;;;;;;;18.00;62.50;;;;;;5071316;28;19908;-27
2023/07/03 00:53:02;;;;;;;;;;;18.10;62.50;;;;;;5071119;28;19998;-31
2023/07/03 00:55:29;;;;;;;;;;;18.10;62.60;;;;;;5071243;28;19909;-28
2023/07/03 00:57:55;;;;;;;;;;;18.00;62.60;;;;;;5071170;28;20363;-27
2023/07/03 01:00:22;;;;;;;;;;;18.00;62.70;;;;;;5071152;28;19909;-29
2023/07/03 01:02:57;;;;;;;;;;;18.00;62.80;;;;;;5071081;28;19909;-28
2023/07/03 01:05:31;;;;;;;;;;;18.00;62.70;;;;;;5071243;28;19908;-28
2023/07/03 01:07:57;;;;;;;;;;;18.00;62.70;;;;;;5071172;28;19916;-27
2023/07/03 01:10:23;;;;;;;;;;;18.00;63.30;;;;;;5071136;28;20354;-28
2023/07/03 01:12:52;;;;;;;;;;;18.00;62.60;;;;;;5071041;28;19915;-29
2023/07/03 01:15:20;;;;;;;;;;;18.00;62.60;;;;;;5071085;28;19912;-28
2023/07/03 01:17:50;;;;;;;;;;;18.00;62.60;;;;;;5070938;28;19916;-29
2023/07/03 01:20:17;;;;;;;;;;;18.00;62.60;;;;;;5052967;28;19940;-27
2023/07/03 01:22:48;;;;;;;;;;;17.90;62.50;;;;;;5071012;28;19913;-29
2023/07/03 01:25:15;;;;;;;;;;;18.00;62.50;;;;;;5070841;28;19913;-28
2023/07/03 01:27:43;;;;;;;;;;;17.90;62.50;;;;;;5070748;28;19924;-30
2023/07/03 01:30:12;;;;;;;;;;;17.90;62.60;;;;;;5074254;28;19912;-28
2023/07/03 01:32:37;;;;;;;;;;;17.90;62.70;;;;;;5074702;28;19908;-29
2023/07/03 01:35:04;;;;;;;;;;;17.80;62.70;;;;;;5056271;28;20380;-37
2023/07/03 01:37:30;;;;;;;;;;;17.80;62.70;;;;;;5074380;28;19910;-28
2023/07/03 01:39:56;;;;;;;;;;;17.80;62.70;;;;;;5074459;28;20007;-28
2023/07/03 01:42:22;;;;;;;;;;;17.80;62.80;;;;;;5074392;28;20000;-32
2023/07/03 01:44:48;;;;;;;;;;;17.70;62.70;;;;;;5074336;28;20315;-31
2023/07/03 01:47:14;;;;;;;;;;;17.70;62.90;;;;;;5074162;28;19908;-27
2023/07/03 01:49:39;;;;;;;;;;;17.60;62.80;;;;;;5074237;28;19974;-28
2023/07/03 01:52:08;;;;;;;;;;;17.60;62.90;;;;;;5056056;28;20437;-26
2023/07/03 01:54:39;;;;;;;;;;;17.50;63.70;;;;;;5074156;28;20368;-30
2023/07/03 01:57:05;;;;;;;;;;;17.50;63.10;;;;;;5074034;28;19908;-27
2023/07/03 01:59:32;;;;;;;;;;;17.50;63.20;;;;;;5073925;28;19966;-29
2023/07/03 02:02:12;;;;;;;;;;;17.40;63.10;;;;;;5074195;28;19912;-27
2023/07/03 02:04:41;;;;;;;;;;;17.40;63.30;;;;;;5073983;28;19915;-27
2023/07/03 02:07:09;;;;;;;;;;;17.40;63.20;;;;;;5074067;28;20355;-26
2023/07/03 02:09:35;;;;;;;;;;;17.50;63.30;;;;;;5073796;28;19923;-27
2023/07/03 02:12:03;;;;;;;;;;;17.40;63.20;;;;;;5073790;28;19931;-29
2023/07/03 02:14:29;;;;;;;;;;;17.40;63.20;;;;;;5073815;28;19913;-28
2023/07/03 02:16:54;;;;;;;;;;;17.50;63.20;;;;;;5055567;28;19978;-38
2023/07/03 02:19:22;;;;;;;;;;;17.40;63.20;;;;;;5073701;28;19913;-39
2023/07/03 02:21:47;;;;;;;;;;;17.40;63.20;;;;;;5073628;28;19950;-34
2023/07/03 02:24:13;;;;;;;;;;;17.40;63.30;;;;;;5073492;28;19908;-29
2023/07/03 02:26:39;;;;;;;;;;;17.40;63.30;;;;;;5073473;28;20441;-30
2023/07/03 02:29:04;;;;;;;;;;;17.40;63.30;;;;;;5073229;28;19925;-28
2023/07/03 02:31:30;;;;;;;;;;;17.40;63.30;;;;;;5073400;28;20402;-27
2023/07/03 02:33:55;;;;;;;;;;;17.40;63.50;;;;;;5073291;28;19912;-29
2023/07/03 02:36:24;;;;;;;;;;;17.30;63.60;;;;;;5073242;28;19909;-29
2023/07/03 02:38:49;;;;;;;;;;;17.30;63.60;;;;;;5073205;28;19924;-29
2023/07/03 02:41:15;;;;;;;;;;;17.30;63.70;;;;;;5072010;28;19908;-37
2023/07/03 02:43:40;;;;;;;;;;;17.30;63.60;;;;;;5073120;28;19915;-34
2023/07/03 02:46:06;;;;;;;;;;;17.30;63.60;;;;;;5073179;28;19954;-27
2023/07/03 02:48:32;;;;;;;;;;;17.30;63.80;;;;;;5073090;28;19954;-32
2023/07/03 02:50:57;;;;;;;;;;;17.30;63.90;;;;;;5073252;28;19909;-43
2023/07/03 02:53:23;;;;;;;;;;;17.20;63.90;;;;;;5072896;28;19995;-38
2023/07/03 02:55:53;;;;;;;;;;;17.20;64.20;;;;;;5072826;28;20429;-41
2023/07/03 02:58:19;;;;;;;;;;;17.20;64.20;;;;;;5072764;28;19912;-34
2023/07/03 03:00:46;;;;;;;;;;;17.20;64.20;;;;;;5072828;28;19934;-31
2023/07/03 03:03:13;;;;;;;;;;;17.20;64.30;;;;;;5072685;28;19908;-34
2023/07/03 03:05:39;;;;;;;;;;;17.20;64.20;;;;;;5072687;28;19921;-29
2023/07/03 03:08:05;;;;;;;;;;;17.20;64.30;;;;;;5072648;28;19913;-29
2023/07/03 03:10:30;;;;;;;;;;;17.20;64.40;;;;;;5072933;28;19915;-31
2023/07/03 03:12:56;;;;;;;;;;;17.20;64.40;;;;;;5072556;28;19908;-31
2023/07/03 03:15:21;;;;;;;;;;;17.20;64.50;;;;;;5072766;28;20345;-42
2023/07/03 03:17:47;;;;;;;;;;;17.20;64.50;;;;;;5072679;28;19915;-27
2023/07/03 03:20:13;;;;;;;;;;;17.20;64.60;;;;;;5072514;28;19966;-27
2023/07/03 03:22:39;;;;;;;;;;;17.20;64.70;;;;;;5072263;28;20367;-28
2023/07/03 03:25:06;;;;;;;;;;;17.20;64.70;;;;;;5072382;28;19938;-28
2023/07/03 03:27:31;;;;;;;;;;;17.20;64.80;;;;;;5072117;28;20045;-28
2023/07/03 03:29:57;;;;;;;;;;;17.20;64.90;;;;;;5072307;28;19944;-30
2023/07/03 03:32:22;;;;;;;;;;;17.20;65.10;;;;;;5072267;28;19908;-28
2023/07/03 03:34:48;;;;;;;;;;;17.20;65.30;;;;;;5072471;28;20334;-28
2023/07/03 03:37:13;;;;;;;;;;;17.10;65.70;;;;;;5072018;28;20193;-26
2023/07/03 03:39:39;;;;;;;;;;;17.10;65.70;;;;;;5071816;28;19958;-27
2023/07/03 03:42:04;;;;;;;;;;;17.10;65.90;;;;;;5072049;28;20437;-28
2023/07/03 03:44:30;;;;;;;;;;;17.10;66.10;;;;;;5072218;28;19940;-27
2023/07/03 03:46:56;;;;;;;;;;;17.00;66.10;;;;;;5054314;28;20301;-28
2023/07/03 03:49:21;;;;;;;;;;;17.00;66.20;;;;;;5071917;28;19916;-32
2023/07/03 03:51:47;;;;;;;;;;;17.00;66.30;;;;;;5071592;28;19909;-27
2023/07/03 03:54:12;;;;;;;;;;;17.00;66.30;;;;;;5071724;28;19908;-35
2023/07/03 03:56:38;;;;;;;;;;;17.10;66.40;;;;;;5071723;28;19963;-26
2023/07/03 03:59:03;;;;;;;;;;;17.00;66.50;;;;;;5071729;28;19912;-26
2023/07/03 04:01:29;;;;;;;;;;;17.00;66.60;;;;;;5071579;28;19909;-29
2023/07/03 04:03:55;;;;;;;;;;;17.00;66.70;;;;;;5071704;28;19915;-30
2023/07/03 04:06:20;;;;;;;;;;;17.00;66.90;;;;;;5071719;28;19958;-29
2023/07/03 04:08:46;;;;;;;;;;;17.00;67.00;;;;;;5071588;28;20305;-27
2023/07/03 04:11:11;;;;;;;;;;;17.10;67.30;;;;;;5071849;28;19908;-26
2023/07/03 04:13:37;;;;;;;;;;;17.00;67.70;;;;;;5071512;28;19919;-29
2023/07/03 04:16:03;;;;;;;;;;;17.00;68.00;;;;;;5071535;28;19908;-26
2023/07/03 04:18:29;;;;;;;;;;;17.00;67.90;;;;;;5071477;28;19928;-28
2023/07/03 04:20:55;;;;;;;;;;;17.00;67.90;;;;;;5071578;28;20387;-30
2023/07/03 04:23:21;;;;;;;;;;;17.00;68.00;;;;;;5071569;28;19909;-28
2023/07/03 04:25:48;;;;;;;;;;;17.00;68.00;;;;;;5071516;28;19988;-29
2023/07/03 04:28:15;;;;;;;;;;;17.00;68.30;;;;;;5071348;28;19929;-32
2023/07/03 04:30:40;;;;;;;;;;;17.00;68.40;;;;;;5071571;28;20284;-28
2023/07/03 04:33:06;;;;;;;;;;;16.90;68.30;;;;;;5071481;28;19909;-30
2023/07/03 04:35:31;;;;;;;;;;;17.00;68.30;;;;;;5071522;28;20025;-27
2023/07/03 04:37:56;;;;;;;;;;;17.00;68.20;;;;;;5071239;28;19965;-27
2023/07/03 04:40:22;;;;;;;;;;;17.00;68.30;;;;;;5071415;28;19909;-27
2023/07/03 04:42:48;;;;;;;;;;;17.00;68.50;;;;;;5071302;28;19962;-26
2023/07/03 04:45:15;;;;;;;;;;;17.00;68.60;;;;;;5071379;28;19920;-27
2023/07/03 04:47:41;;;;;;;;;;;17.00;68.70;;;;;;5071370;28;19951;-27
2023/07/03 04:50:10;;;;;;;;;;;17.00;68.90;;;;;;5071264;28;19909;-29
2023/07/03 04:52:39;;;;;;;;;;;17.00;68.90;;;;;;5071397;28;19938;-29
2023/07/03 04:55:09;;;;;;;;;;;17.00;69.10;;;;;;5071334;28;19947;-29
2023/07/03 04:57:38;;;;;;;;;;;17.00;68.90;;;;;;5071329;28;19971;-27
2023/07/03 05:00:14;;;;;;;;;;;17.00;69.00;;;;;;5071170;28;19920;-27
2023/07/03 05:02:43;;;;;;;;;;;17.00;69.10;;;;;;5071071;28;19970;-28
2023/07/03 05:05:10;;;;;;;;;;;17.00;69.00;;;;;;5074688;28;19955;-28
2023/07/03 05:07:36;;;;;;;;;;;17.10;69.00;;;;;;5074960;28;20470;-27
2023/07/03 05:10:02;;;;;;;;;;;17.10;69.00;;;;;;5074886;28;19908;-28
2023/07/03 05:12:27;;;;;;;;;;;17.00;69.30;;;;;;5074887;28;19958;-27
2023/07/03 05:14:53;;;;;;;;;;;17.00;69.20;;;;;;5074787;28;20284;-28
2023/07/03 05:17:19;;;;;;;;;;;17.00;69.30;;;;;;5074578;28;19916;-28
2023/07/03 05:19:44;;;;;;;;;;;17.00;69.50;;;;;;5074721;28;19913;-27
2023/07/03 05:22:10;;;;;;;;;;;17.00;69.50;;;;;;5074694;28;20356;-25
2023/07/03 05:24:35;;;;;;;;;;;17.10;69.30;;;;;;5074700;28;19908;-28
2023/07/03 05:27:00;;;;;;;;;;;17.10;69.20;;;;;;5074540;28;20027;-27
2023/07/03 05:29:26;;;;;;;;;;;17.10;69.30;;;;;;5074493;28;19920;-27
2023/07/03 05:31:51;;;;;;;;;;;17.10;69.40;;;;;;5074467;28;19908;-27
2023/07/03 05:34:17;;;;;;;;;;;17.10;69.60;;;;;;5074324;28;20367;-29
2023/07/03 05:36:44;;;;;;;;;;;17.10;69.80;;;;;;5073982;28;20404;-26
2023/07/03 05:39:09;;;;;;;;;;;17.10;69.70;;;;;;5074406;28;20000;-28
2023/07/03 05:41:35;;;;;;;;;;;17.10;69.80;;;;;;5074373;28;20341;-26
2023/07/03 05:44:00;;;;;;;;;;;17.10;69.60;;;;;;5074204;28;20253;-29
2023/07/03 05:46:26;;;;;;;;;;;17.20;69.70;;;;;;5074279;28;19909;-26
2023/07/03 05:48:51;;;;;;;;;;;17.30;69.60;;;;;;5074206;28;19914;-33
2023/07/03 05:51:17;;;;;;;;;;;17.30;70.00;;;;;;5074116;28;19959;-26
2023/07/03 05:53:42;;;;;;;;;;;17.30;70.00;;;;;;5074011;28;20018;-37
2023/07/03 05:56:08;;;;;;;;;;;17.20;69.80;;;;;;5074082;28;19965;-33
2023/07/03 05:58:33;;;;;;;;;;;17.30;69.70;;;;;;5074113;28;19935;-27
2023/07/03 06:00:59;;;;;;;;;;;17.40;69.70;;;;;;5073899;28;20272;-29
2023/07/03 06:03:25;;;;;;;;;;;17.50;69.60;;;;;;5073824;28;20045;-27
2023/07/03 06:05:51;;;;;;;;;;;17.50;69.40;;;;;;5073905;28;19916;-32
2023/07/03 06:08:16;;;;;;;;;;;17.60;69.40;;;;;;5073772;28;19918;-28
2023/07/03 06:10:42;;;;;;;;;;;17.70;69.90;;;;;;5073758;28;20373;-28
2023/07/03 06:13:07;;;;;;;;;;;17.80;69.80;;;;;;5073825;28;20444;-28
2023/07/03 06:15:36;;;;;;;;;;;17.80;69.50;;;;;;5055461;28;20290;-28
2023/07/03 06:18:04;;;;;;;;;;;17.80;69.60;;;;;;5073598;28;20260;-30
2023/07/03 06:20:30;;;;;;;;;;;17.80;69.70;;;;;;5073655;28;20357;-27
2023/07/03 06:22:55;;;;;;;;;;;17.90;69.90;;;;;;5073533;28;19951;-31
2023/07/03 06:25:21;;;;;;;;;;;17.90;69.60;;;;;;5055444;28;19915;-29
2023/07/03 06:27:47;;;;;;;;;;;17.90;69.60;;;;;;5072466;28;19927;-28
2023/07/03 06:30:12;;;;;;;;;;;17.90;69.40;;;;;;5072188;28;19912;-28
2023/07/03 06:32:38;;;;;;;;;;;18.00;69.40;;;;;;5073315;28;19927;-29
2023/07/03 06:35:03;;;;;;;;;;;18.00;69.60;;;;;;5073295;28;19978;-26
2023/07/03 06:37:29;;;;;;;;;;;18.00;69.40;;;;;;5073378;28;19912;-28
2023/07/03 06:39:54;;;;;;;;;;;17.90;69.50;;;;;;5073196;28;19963;-28
2023/07/03 06:42:20;;;;;;;;;;;17.90;69.50;;;;;;5073265;28;19935;-28
2023/07/03 06:44:45;;;;;;;;;;;17.90;69.60;;;;;;5073200;28;19912;-29
2023/07/03 06:47:11;;;;;;;;;;;17.90;69.60;;;;;;5073165;28;20324;-30
2023/07/03 06:49:36;;;;;;;;;;;17.90;69.60;;;;;;5073017;28;20110;-31
2023/07/03 06:52:02;;;;;;;;;;;17.90;69.50;;;;;;5073157;28;19913;-28
2023/07/03 06:54:28;;;;;;;;;;;17.90;69.60;;;;;;5072959;28;19913;-29
2023/07/03 06:56:53;;;;;;;;;;;17.90;69.60;;;;;;5072883;28;19919;-29
2023/07/03 06:59:19;;;;;;;;;;;17.90;69.90;;;;;;5072711;28;19920;-28
2023/07/03 07:01:44;;;;;;;;;;;17.90;69.60;;;;;;5072910;28;19962;-28
2023/07/03 07:04:10;;;;;;;;;;;17.90;69.60;;;;;;5072920;28;20371;-27
2023/07/03 07:06:37;;;;;;;;;;;18.00;69.60;;;;;;5054713;28;19913;-29
2023/07/03 07:09:03;;;;;;;;;;;18.00;69.40;;;;;;5054573;28;19912;-30
2023/07/03 07:11:30;;;;;;;;;;;18.10;69.20;;;;;;5072542;28;19962;-30
2023/07/03 07:13:56;;;;;;;;;;;18.10;69.10;;;;;;5072588;28;19913;-31
2023/07/03 07:16:23;;;;;;;;;;;18.20;69.10;;;;;;5072559;28;19913;-35
2023/07/03 07:18:53;;;;;;;;;;;18.20;68.90;;;;;;5072483;28;19920;-28
2023/07/03 07:21:19;;;;;;;;;;;18.30;68.90;;;;;;5072414;28;19912;-28
2023/07/03 07:23:52;;;;;;;;;;;18.40;68.70;;;;;;5072367;28;19912;-29
2023/07/03 07:26:18;;;;;;;;;;;18.40;68.60;;;;;;5071697;28;20042;-28
2023/07/03 07:28:44;;;;;;;;;;;18.40;68.50;;;;;;5072155;28;19948;-28
2023/07/03 07:31:09;;;;;;;;;;;18.40;68.40;;;;;;5072205;28;19913;-28
2023/07/03 07:33:35;;;;;;;;;;;18.50;68.20;;;;;;5054233;28;20401;-33
2023/07/03 07:36:00;;;;;;;;;;;18.60;68.20;;;;;;5072067;28;19919;-30
2023/07/03 07:38:26;;;;;;;;;;;18.60;68.10;;;;;;5071952;28;19922;-30
2023/07/03 07:41:02;;;;;;;;;;;18.60;68.10;;;;;;5071944;28;19934;-27
2023/07/03 07:43:27;;;;;;;;;;;18.60;68.10;;;;;;5054040;28;20408;-29
2023/07/03 07:45:53;;;;;;;;;;;18.60;68.00;;;;;;5072059;28;19955;-27
2023/07/03 07:48:18;;;;;;;;;;;18.60;68.00;;;;;;5071918;28;19913;-29
2023/07/03 07:50:44;;;;;;;;;;;18.60;68.00;;;;;;5071970;28;19919;-27
2023/07/03 07:53:09;;;;;;;;;;;18.60;68.10;;;;;;5071932;28;19913;-28
2023/07/03 07:55:35;;;;;;;;;;;18.60;68.00;;;;;;5071955;28;20015;-29
2023/07/03 07:58:01;;;;;;;;;;;18.60;68.00;;;;;;5071659;28;19912;-28
2023/07/03 08:00:26;;;;;;;;;;;18.70;68.10;;;;;;5071937;28;20034;-27
2023/07/03 08:02:52;;;;;;;;;;;18.70;67.80;;;;;;5071741;28;19919;-27
2023/07/03 08:05:17;;;;;;;;;;;18.80;67.70;;;;;;5071784;28;20003;-27
2023/07/03 08:07:43;;;;;;;;;;;18.90;67.50;;;;;;5053658;28;20015;-26
2023/07/03 08:10:09;;;;;;;;;;;19.00;67.40;;;;;;5071678;28;19923;-28
2023/07/03 08:12:34;;;;;;;;;;;19.00;67.30;;;;;;5071919;28;19912;-28
2023/07/03 08:15:00;;;;;;;;;;;19.00;67.10;;;;;;5071540;28;19920;-30
2023/07/03 08:17:25;;;;;;;;;;;19.00;67.20;;;;;;5071741;28;20523;-28
2023/07/03 08:19:51;;;;;;;;;;;19.00;67.20;;;;;;5071884;28;19924;-29
2023/07/03 08:22:17;;;;;;;;;;;19.10;67.10;;;;;;5053551;28;20011;-27
2023/07/03 08:24:42;;;;;;;;;;;19.20;66.90;;;;;;5071828;28;19919;-28
2023/07/03 08:27:07;;;;;;;;;;;19.30;66.70;;;;;;5071499;28;19922;-28
2023/07/03 08:29:33;;;;;;;;;;;19.40;66.30;;;;;;5071285;28;20241;-29
2023/07/03 08:31:58;;;;;;;;;;;19.50;66.00;;;;;;5071407;28;19959;-30
2023/07/03 08:34:24;;;;;;;;;;;19.70;65.90;;;;;;5071524;28;19916;-31
2023/07/03 08:36:49;;;;;;;;;;;19.70;65.70;;;;;;5071521;28;19987;-28
2023/07/03 08:39:15;;;;;;;;;;;19.70;65.50;;;;;;5075274;28;20288;-28
2023/07/03 08:41:44;;;;;;;;;;;19.80;65.30;;;;;;5075505;28;19920;-33
2023/07/03 08:44:10;;;;;;;;;;;19.80;65.20;;;;;;5075358;28;19913;-26
2023/07/03 08:46:36;;;;;;;;;;;19.80;64.90;;;;;;5075460;28;20563;-26
2023/07/03 08:49:04;;;;;;;;;;;19.90;64.90;;;;;;5075184;28;19912;-28
2023/07/03 08:51:31;;;;;;;;;;;19.90;63.90;;;;;;5075209;28;19913;-29
2023/07/03 08:54:04;;;;;;;;;;;19.90;63.70;;;;;;5075163;28;19953;-29
2023/07/03 08:56:32;;;;;;;;;;;19.90;63.40;;;;;;5075091;28;19920;-29
2023/07/03 08:58:58;;;;;;;;;;;19.90;63.40;;;;;;5075133;28;20073;-28
2023/07/03 09:01:33;;;;;;;;;;;19.90;63.40;;;;;;5075184;28;19943;-27
2023/07/03 09:04:11;;;;;;;;;;;19.70;60.40;;;;;;5074876;28;19916;-27
2023/07/03 09:06:43;;;;;;;;;;;19.60;61.50;;;;;;5075239;28;20368;-31
2023/07/03 09:09:23;;;;;;;;;;;19.40;62.30;;;;;;5074892;28;20407;-36
2023/07/03 09:12:03;;;;;;;;;;;19.40;63.20;;;;;;5074826;28;20276;-27
2023/07/03 09:14:32;;;;;;;;;;;19.40;60.90;;;;;;5074776;28;20291;-27
2023/07/03 09:16:58;;;;;;;;;;;19.40;61.30;;;;;;5074731;28;19974;-27
2023/07/03 09:19:25;;;;;;;;;;;19.50;61.70;;;;;;5074880;28;20030;-27
2023/07/03 09:21:52;;;;;;;;;;;19.60;61.90;;;;;;5074712;28;19912;-27
2023/07/03 09:24:27;;;;;;;;;;;19.70;61.70;;;;;;5074514;28;20315;-29
2023/07/03 09:26:59;;;;;;;;;;;19.80;61.90;;;;;;5074422;28;19956;-31
2023/07/03 09:29:25;;;;;;;;;;;19.80;61.80;;;;;;5074356;28;19927;-27
2023/07/03 09:31:52;;;;;;;;;;;19.80;61.30;;;;;;5074455;28;20291;-28
2023/07/03 09:34:19;;;;;;;;;;;19.80;61.30;;;;;;5074382;28;20265;-29
2023/07/03 09:36:45;;;;;;;;;;;19.80;60.60;;;;;;5074284;28;20376;-26
2023/07/03 09:39:12;;;;;;;;;;;19.60;60.50;;;;;;5074138;28;19967;-28
2023/07/03 09:41:38;;;;;;;;;;;19.40;60.40;;;;;;5074377;28;19916;-26
2023/07/03 09:44:08;;;;;;;;;;;19.30;61.10;;;;;;5074288;28;19912;-29
2023/07/03 09:46:33;;;;;;;;;;;19.20;61.10;;;;;;5074302;28;19940;-29
2023/07/03 09:49:13;;;;;;;;;;;19.20;61.40;;;;;;5073638;28;19967;-34
2023/07/03 09:51:39;;;;;;;;;;;19.00;61.70;;;;;;5074169;28;20035;-28
2023/07/03 09:54:06;;;;;;;;;;;19.00;62.00;;;;;;5074208;28;19934;-27
2023/07/03 09:56:31;;;;;;;;;;;19.10;62.30;;;;;;5074073;28;19974;-30
2023/07/03 09:59:01;;;;;;;;;;;19.30;62.10;;;;;;5073959;28;19967;-30
2023/07/03 10:01:28;;;;;;;;;;;19.40;61.10;;;;;;5073963;28;19912;-28
2023/07/03 10:04:02;;;;;;;;;;;19.60;61.10;;;;;;5073769;28;19913;-29
2023/07/03 10:06:28;;;;;;;;;;;19.70;60.90;;;;;;5073928;28;20376;-28
2023/07/03 10:08:58;;;;;;;;;;;19.80;60.90;;;;;;5074180;28;19912;-29
2023/07/03 10:11:27;;;;;;;;;;;19.90;60.50;;;;;;5074144;28;19916;-31
2023/07/03 10:13:53;;;;;;;;;;;19.90;60.40;;;;;;5073663;28;20355;-30
2023/07/03 10:16:21;;;;;;;;;;;19.90;60.40;;;;;;5073778;28;19920;-28
2023/07/03 10:18:48;;;;;;;;;;;19.90;60.20;;;;;;5073529;28;19946;-32
2023/07/03 10:21:16;;;;;;;;;;;19.90;61.30;;;;;;5073466;28;19956;-30
2023/07/03 10:23:44;;;;;;;;;;;19.60;61.80;;;;;;5073571;28;19912;-29
2023/07/03 10:26:18;;;;;;;;;;;19.40;62.20;;;;;;5073497;28;19913;-27
2023/07/03 10:28:45;;;;;;;;;;;19.30;62.80;;;;;;5073332;28;19921;-36
2023/07/03 10:31:20;;;;;;;;;;;19.20;63.10;;;;;;5073464;28;19931;-26
2023/07/03 10:33:48;;;;;;;;;;;19.20;62.60;;;;;;5073222;28;19913;-29
2023/07/03 10:36:23;;;;;;;;;;;19.20;62.60;;;;;;5073240;28;20418;-27
2023/07/03 10:38:55;;;;;;;;;;;19.40;62.40;;;;;;5073186;28;19967;-30
2023/07/03 10:41:24;;;;;;;;;;;19.40;61.40;;;;;;5073254;28;20339;-29
2023/07/03 10:43:55;;;;;;;;;;;19.50;60.10;;;;;;5073238;28;19912;-27
2023/07/03 10:46:35;;;;;;;;;;;19.40;59.40;;;;;;5072996;28;19947;-27
2023/07/03 10:49:03;;;;;;;;;;;19.40;59.60;;;;;;5073057;28;19912;-29
2023/07/03 10:51:52;;;;;;;;;;;19.40;59.50;;;;;;5073061;28;19923;-29
2023/07/03 10:54:22;;;;;;;;;;;19.30;59.20;;;;;;5072871;28;19944;-28
2023/07/03 10:56:50;;;;;;;;;;;19.20;58.80;;;;;;5072933;28;19913;-28
2023/07/03 10:59:21;;;;;;;;;;;19.10;59.20;;;;;;5072669;28;19916;-28
2023/07/03 11:02:05;;;;;;;;;;;19.10;59.30;;;;;;5071872;28;19912;-28
2023/07/03 11:04:38;;;;;;;;;;;19.00;59.50;;;;;;5072962;28;19956;-29
2023/07/03 11:07:08;;;;;;;;;;;19.00;59.80;;;;;;5072643;28;19913;-30
2023/07/03 11:09:37;;;;;;;;;;;19.10;59.10;;;;;;5072920;28;20268;-27
2023/07/03 11:12:16;;;;;;;;;;;19.10;58.70;;;;;;5072750;28;19912;-27
2023/07/03 11:14:58;;;;;;;;;;;19.10;59.10;;;;;;5073163;28;20011;-35
2023/07/03 11:17:31;;;;;;;;;;;19.20;59.10;;;;;;5072636;28;19920;-31
2023/07/03 11:19:56;;;;;;;;;;;19.20;59.00;;;;;;5072305;28;19916;-33
2023/07/03 11:22:25;;;;;;;;;;;19.20;58.30;;;;;;5072429;28;19919;-28
2023/07/03 11:24:53;;;;;;;;;;;19.10;58.40;;;;;;5072517;28;19952;-30
2023/07/03 11:27:22;;;;;;;;;;;19.10;58.50;;;;;;5072339;28;19913;-29
2023/07/03 11:29:48;;;;;;;;;;;19.20;58.90;;;;;;5072338;28;19967;-39
2023/07/03 11:32:13;;;;;;;;;;;19.20;58.70;;;;;;5072177;28;19918;-28
2023/07/03 11:34:39;;;;;;;;;;;19.30;58.20;;;;;;5072516;28;19912;-27
2023/07/03 11:37:34;;;;;;;;;;;19.40;57.80;;;;;;5072226;28;20296;-27
2023/07/03 11:40:20;;;;;;;;;;;19.50;57.80;;;;;;5058595;28;20402;-29
2023/07/03 11:42:45;;;;;;;;;;;19.60;56.80;;;;;;5071773;28;19924;-38
2023/07/03 11:45:23;;;;;;;;;;;19.80;54.90;;;;;;5072342;28;20272;-27
2023/07/03 11:47:51;;;;;;;;;;;19.90;53.40;;;;;;5054055;28;19913;-27
2023/07/03 11:50:25;;;;;;;;;;;20.10;53.10;;;;;;5071935;28;19916;-29
2023/07/03 11:52:52;;;;;;;;;;;20.20;53.30;;;;;;5072093;28;19912;-28
2023/07/03 11:55:20;;;;;;;;;;;20.30;53.60;;;;;;5072015;28;19917;-28
2023/07/03 11:57:49;;;;;;;;;;;20.30;53.80;;;;;;5054018;28;19912;-30
2023/07/03 12:00:16;;;;;;;;;;;20.40;54.10;;;;;;5072179;28;19924;-33
2023/07/03 12:02:48;;;;;;;;;;;20.50;54.00;;;;;;5071983;28;19913;-27
2023/07/03 12:05:32;;;;;;;;;;;20.60;54.00;;;;;;5072047;28;20344;-28
2023/07/03 12:07:57;;;;;;;;;;;20.60;53.90;;;;;;5071667;28;19919;-29
2023/07/03 12:10:23;;;;;;;;;;;20.50;54.20;;;;;;5071971;28;19913;-32
2023/07/03 12:13:07;;;;;;;;;;;20.40;54.30;;;;;;5071779;28;20007;-29
2023/07/03 12:15:32;;;;;;;;;;;20.30;54.60;;;;;;5072077;28;20368;-28
2023/07/03 12:18:02;;;;;;;;;;;20.20;54.90;;;;;;5071748;28;20007;-27
2023/07/03 12:20:28;;;;;;;;;;;20.00;55.90;;;;;;5071750;28;20303;-31
2023/07/03 12:22:53;;;;;;;;;;;19.90;55.60;;;;;;5071875;28;19912;-28
2023/07/03 12:25:22;;;;;;;;;;;19.90;56.00;;;;;;5071802;28;19961;-28
2023/07/03 12:27:48;;;;;;;;;;;19.90;56.50;;;;;;5071640;28;19920;-31
2023/07/03 12:30:40;;;;;;;;;;;20.00;56.50;;;;;;5071623;28;19913;-30
2023/07/03 12:33:06;;;;;;;;;;;20.20;56.40;;;;;;5068584;28;19913;-30
2023/07/03 12:35:33;;;;;;;;;;;20.60;56.10;;;;;;5071941;28;19995;-28
2023/07/03 12:38:00;;;;;;;;;;;20.70;55.80;;;;;;5071749;28;19916;-32
2023/07/03 12:40:26;;;;;;;;;;;20.80;55.40;;;;;;5071706;28;19956;-28
2023/07/03 12:42:52;;;;;;;;;;;20.90;55.60;;;;;;5071569;28;20371;-28
2023/07/03 12:45:19;;;;;;;;;;;20.90;54.70;;;;;;5071769;28;19913;-29
2023/07/03 12:47:46;;;;;;;;;;;20.80;53.00;;;;;;5070708;28;19912;-28
2023/07/03 12:50:13;;;;;;;;;;;20.80;50.00;;;;;;5071546;28;20323;-27
2023/07/03 12:52:39;;;;;;;;;;;20.70;49.60;;;;;;5071526;28;20019;-36
2023/07/03 12:55:05;;;;;;;;;;;20.60;50.80;;;;;;5071387;28;19951;-34
2023/07/03 12:57:34;;;;;;;;;;;20.70;49.70;;;;;;5071440;28;19912;-28
2023/07/03 13:00:00;;;;;;;;;;;20.90;50.10;;;;;;5071274;28;19923;-28
2023/07/03 13:02:26;;;;;;;;;;;21.10;49.20;;;;;;5071434;28;19955;-29
2023/07/03 13:04:54;;;;;;;;;;;21.20;48.50;;;;;;5053147;28;19934;-27
2023/07/03 13:07:19;;;;;;;;;;;21.20;48.60;;;;;;5071159;28;19935;-28
2023/07/03 13:09:45;;;;;;;;;;;21.20;49.10;;;;;;5071299;28;19912;-26
2023/07/03 13:12:21;;;;;;;;;;;21.20;48.40;;;;;;5071144;28;19918;-27
2023/07/03 13:15:11;;;;;;;;;;;21.30;47.50;;;;;;5071408;28;20016;-28
2023/07/03 13:17:38;;;;;;;;;;;21.40;47.00;;;;;;5071254;28;19908;-31
2023/07/03 13:20:16;;;;;;;;;;;21.40;47.70;;;;;;5071074;28;20356;-27
2023/07/03 13:22:49;;;;;;;;;;;21.40;46.20;;;;;;5071113;28;19908;-27
2023/07/03 13:25:24;;;;;;;;;;;21.40;46.20;;;;;;5072863;28;19924;-30
2023/07/03 13:27:50;;;;;;;;;;;21.30;46.50;;;;;;5074526;28;19925;-29
2023/07/03 13:30:23;;;;;;;;;;;21.40;46.40;;;;;;5074555;28;20373;-28
2023/07/03 13:32:53;;;;;;;;;;;21.40;46.20;;;;;;5074614;28;20001;-28
2023/07/03 13:35:26;;;;;;;;;;;21.50;46.20;;;;;;5074404;28;19912;-27
2023/07/03 13:37:51;;;;;;;;;;;21.60;46.40;;;;;;5074446;28;19997;-30
2023/07/03 13:40:17;;;;;;;;;;;21.70;46.60;;;;;;5074605;28;19967;-27
2023/07/03 13:42:43;;;;;;;;;;;21.80;46.90;;;;;;5074421;28;19908;-30
2023/07/03 13:45:09;;;;;;;;;;;22.00;47.20;;;;;;5074370;28;19932;-26
2023/07/03 13:47:34;;;;;;;;;;;22.20;46.90;;;;;;5074428;28;19988;-35
2023/07/03 13:50:01;;;;;;;;;;;22.20;46.80;;;;;;5074246;28;20372;-31
2023/07/03 13:52:26;;;;;;;;;;;22.20;46.60;;;;;;5074358;28;19909;-33
2023/07/03 13:54:52;;;;;;;;;;;22.20;46.40;;;;;;5074119;28;20226;-29
2023/07/03 13:57:17;;;;;;;;;;;22.20;46.60;;;;;;5074063;28;20011;-32
2023/07/03 13:59:43;;;;;;;;;;;22.20;45.80;;;;;;5074110;28;19913;-31
2023/07/03 14:02:08;;;;;;;;;;;22.20;45.70;;;;;;5055889;28;20356;-31
2023/07/03 14:04:33;;;;;;;;;;;22.10;44.70;;;;;;5074389;28;19909;-34
2023/07/03 14:06:59;;;;;;;;;;;22.10;44.70;;;;;;5073861;28;19908;-29
2023/07/03 14:09:24;;;;;;;;;;;22.10;45.00;;;;;;5074128;28;19966;-30
2023/07/03 14:11:50;;;;;;;;;;;22.00;43.90;;;;;;5073800;28;20367;-30
2023/07/03 14:14:15;;;;;;;;;;;21.90;44.60;;;;;;5073877;28;19915;-29
2023/07/03 14:16:41;;;;;;;;;;;21.90;44.40;;;;;;5073789;28;20367;-27
2023/07/03 14:19:06;;;;;;;;;;;21.80;44.20;;;;;;5073704;28;19912;-32